sensor_id;sensor_type;location;lat;lon;timestamp;temperature;humidity
1800;DHT22;919;48.274;12.292;2023-08-12T00:02:18;14.80;99.90
1800;DHT22;919;48.274;12.292;2023-08-12T00:04:46;14.80;99.90
1800;DHT22;919;48.274;12.292;2023-08-12T00:07:14;14.90;99.90
1800;DHT22;919;48.274;12.292;2023-08-12T00:09:41;14.90;99.90
1800;DHT22;919;48.274;12.292;2023-08-12T00:12:08;14.90;99.90
1800;DHT22;919;48.274;12.292;2023-08-12T00:14:37;14.80;99.90
1800;DHT22;919;48.274;12.292;2023-08-12T00:17:05;14.90;99.90
1800;DHT22;919;48.274;12.292;2023-08-12T00:19:33;14.80;99.90
1800;DHT22;919;48.274;12.292;2023-08-12T00:22:00;14.70;99.90
1800;DHT22;919;48.274;12.292;2023-08-12T00:24:28;14.70;99.90
1800;DHT22;919;48.274;12.292;2023-08-12T00:26:57;14.80;99.90
1800;DHT22;919;48.274;12.292;2023-08-12T00:29:25;14.90;99.90
1800;DHT22;919;48.274;12.292;2023-08-12T00:31:54;14.80;99.90
1800;DHT22;919;48.274;12.292;2023-08-12T00:34:21;14.80;99.90
1800;DHT22;919;48.274;12.292;2023-08-12T00:36:49;14.40;99.90
1800;DHT22;919;48.274;12.292;2023-08-12T00:39:16;14.10;99.90
1800;DHT22;919;48.274;12.292;2023-08-12T00:41:43;13.90;99.90
1800;DHT22;919;48.274;12.292;2023-08-12T00:44:11;13.90;99.90
1800;DHT22;919;48.274;12.292;2023-08-12T00:46:38;14.00;99.90
1800;DHT22;919;48.274;12.292;2023-08-12T00:49:09;14.10;99.90
1800;DHT22;919;48.274;12.292;2023-08-12T00:51:36;14.10;99.90
1800;DHT22;919;48.274;12.292;2023-08-12T00:54:05;14.10;99.90
1800;DHT22;919;48.274;12.292;2023-08-12T00:56:34;14.10;99.90
1800;DHT22;919;48.274;12.292;2023-08-12T00:59:04;14.10;99.90
1800;DHT22;919;48.274;12.292;2023-08-12T01:01:33;14.00;99.90
1800;DHT22;919;48.274;12.292;2023-08-12T01:04:01;13.90;99.90
1800;DHT22;919;48.274;12.292;2023-08-12T01:06:30;14.00;99.90
1800;DHT22;919;48.274;12.292;2023-08-12T01:08:59;14.00;99.90
1800;DHT22;919;48.274;12.292;2023-08-12T01:11:36;14.00;99.90
1800;DHT22;919;48.274;12.292;2023-08-12T01:14:12;14.10;99.90
1800;DHT22;919;48.274;12.292;2023-08-12T01:16:45;14.10;99.90
1800;DHT22;919;48.274;12.292;2023-08-12T01:19:22;14.10;99.90
1800;DHT22;919;48.274;12.292;2023-08-12T01:21:53;14.20;99.90
1800;DHT22;919;48.274;12.292;2023-08-12T01:24:25;14.10;99.90
1800;DHT22;919;48.274;12.292;2023-08-12T01:26:52;14.00;99.90
1800;DHT22;919;48.274;12.292;2023-08-12T01:29:21;13.90;99.90
1800;DHT22;919;48.274;12.292;2023-08-12T01:31:51;13.90;99.90
1800;DHT22;919;48.274;12.292;2023-08-12T01:34:28;13.90;99.90
1800;DHT22;919;48.274;12.292;2023-08-12T01:37:00;13.80;99.90
1800;DHT22;919;48.274;12.292;2023-08-12T01:39:31;13.70;99.90
1800;DHT22;919;48.274;12.292;2023-08-12T01:42:00;13.70;99.90
1800;DHT22;919;48.274;12.292;2023-08-12T01:44:28;13.70;99.90
1800;DHT22;919;48.274;12.292;2023-08-12T01:46:55;13.80;99.90
1800;DHT22;919;48.274;12.292;2023-08-12T01:49:22;13.80;99.90
1800;DHT22;919;48.274;12.292;2023-08-12T01:51:50;13.80;99.90
1800;DHT22;919;48.274;12.292;2023-08-12T01:54:18;13.80;99.90
1800;DHT22;919;48.274;12.292;2023-08-12T01:56:48;13.80;99.90
1800;DHT22;919;48.274;12.292;2023-08-12T01:59:16;13.70;99.90
1800;DHT22;919;48.274;12.292;2023-08-12T02:01:43;13.60;99.90
1800;DHT22;919;48.274;12.292;2023-08-12T02:04:10;13.50;99.90
1800;DHT22;919;48.274;12.292;2023-08-12T02:06:38;13.50;99.90
1800;DHT22;919;48.274;12.292;2023-08-12T02:09:05;13.60;99.90
1800;DHT22;919;48.274;12.292;2023-08-12T02:11:33;13.60;99.90
1800;DHT22;919;48.274;12.292;2023-08-12T02:14:02;13.60;99.90
1800;DHT22;919;48.274;12.292;2023-08-12T02:16:29;13.50;99.90
1800;DHT22;919;48.274;12.292;2023-08-12T02:18:56;13.50;99.90
1800;DHT22;919;48.274;12.292;2023-08-12T02:21:23;13.40;99.90
1800;DHT22;919;48.274;12.292;2023-08-12T02:23:51;13.40;99.90
1800;DHT22;919;48.274;12.292;2023-08-12T02:26:18;13.50;99.90
1800;DHT22;919;48.274;12.292;2023-08-12T02:28:45;13.50;99.90
1800;DHT22;919;48.274;12.292;2023-08-12T02:31:15;13.40;99.90
1800;DHT22;919;48.274;12.292;2023-08-12T02:33:43;13.50;99.90
1800;DHT22;919;48.274;12.292;2023-08-12T02:36:11;13.50;99.90
1800;DHT22;919;48.274;12.292;2023-08-12T02:38:38;13.50;99.90
1800;DHT22;919;48.274;12.292;2023-08-12T02:41:05;13.50;99.90
1800;DHT22;919;48.274;12.292;2023-08-12T02:43:32;13.50;99.90
1800;DHT22;919;48.274;12.292;2023-08-12T02:45:59;13.50;99.90
1800;DHT22;919;48.274;12.292;2023-08-12T02:48:28;13.50;99.90
1800;DHT22;919;48.274;12.292;2023-08-12T02:50:55;13.40;99.90
1800;DHT22;919;48.274;12.292;2023-08-12T02:53:23;13.30;99.90
1800;DHT22;919;48.274;12.292;2023-08-12T02:55:50;13.30;99.90
1800;DHT22;919;48.274;12.292;2023-08-12T02:58:17;13.20;99.90
1800;DHT22;919;48.274;12.292;2023-08-12T03:00:44;12.90;99.90
1800;DHT22;919;48.274;12.292;2023-08-12T03:03:12;12.80;99.90
1800;DHT22;919;48.274;12.292;2023-08-12T03:05:40;12.80;99.90
1800;DHT22;919;48.274;12.292;2023-08-12T03:08:09;12.60;99.90
1800;DHT22;919;48.274;12.292;2023-08-12T03:10:37;12.70;99.90
1800;DHT22;919;48.274;12.292;2023-08-12T03:13:05;12.60;99.90
1800;DHT22;919;48.274;12.292;2023-08-12T03:15:34;12.60;99.90
1800;DHT22;919;48.274;12.292;2023-08-12T03:18:01;12.70;99.90
1800;DHT22;919;48.274;12.292;2023-08-12T03:20:28;12.80;99.90
1800;DHT22;919;48.274;12.292;2023-08-12T03:22:57;12.70;99.90
1800;DHT22;919;48.274;12.292;2023-08-12T03:25:26;12.60;99.90
1800;DHT22;919;48.274;12.292;2023-08-12T03:27:53;12.60;99.90
1800;DHT22;919;48.274;12.292;2023-08-12T03:30:21;12.70;99.90
1800;DHT22;919;48.274;12.292;2023-08-12T03:32:48;12.70;99.90
1800;DHT22;919;48.274;12.292;2023-08-12T03:35:16;12.70;99.90
1800;DHT22;919;48.274;12.292;2023-08-12T03:37:43;12.70;99.90
1800;DHT22;919;48.274;12.292;2023-08-12T03:40:12;12.80;99.90
1800;DHT22;919;48.274;12.292;2023-08-12T03:42:39;12.80;99.90
1800;DHT22;919;48.274;12.292;2023-08-12T03:45:07;12.90;99.90
1800;DHT22;919;48.274;12.292;2023-08-12T03:47:36;12.70;99.90
1800;DHT22;919;48.274;12.292;2023-08-12T03:50:05;12.60;99.90
1800;DHT22;919;48.274;12.292;2023-08-12T03:52:33;12.70;99.90
1800;DHT22;919;48.274;12.292;2023-08-12T03:55:00;12.70;99.90
1800;DHT22;919;48.274;12.292;2023-08-12T03:57:29;12.80;99.90
1800;DHT22;919;48.274;12.292;2023-08-12T03:59:57;12.80;99.90
1800;DHT22;919;48.274;12.292;2023-08-12T04:02:25;12.80;99.90
1800;DHT22;919;48.274;12.292;2023-08-12T04:04:52;12.80;99.90
1800;DHT22;919;48.274;12.292;2023-08-12T04:07:19;12.80;99.90
1800;DHT22;919;48.274;12.292;2023-08-12T04:09:46;12.80;99.90
1800;DHT22;919;48.274;12.292;2023-08-12T04:12:14;12.80;99.90
1800;DHT22;919;48.274;12.292;2023-08-12T04:14:42;12.80;99.90
1800;DHT22;919;48.274;12.292;2023-08-12T04:17:09;12.70;99.90
1800;DHT22;919;48.274;12.292;2023-08-12T04:19:36;12.60;99.90
1800;DHT22;919;48.274;12.292;2023-08-12T04:22:04;12.70;99.90
1800;DHT22;919;48.274;12.292;2023-08-12T04:24:31;12.80;99.90
1800;DHT22;919;48.274;12.292;2023-08-12T04:26:57;12.80;99.90
1800;DHT22;919;48.274;12.292;2023-08-12T04:29:24;12.90;99.90
1800;DHT22;919;48.274;12.292;2023-08-12T04:31:52;13.00;99.90
1800;DHT22;919;48.274;12.292;2023-08-12T04:34:19;13.10;99.90
1800;DHT22;919;48.274;12.292;2023-08-12T04:36:46;13.20;99.90
1800;DHT22;919;48.274;12.292;2023-08-12T04:39:12;13.40;99.90
1800;DHT22;919;48.274;12.292;2023-08-12T04:41:39;13.50;99.90
1800;DHT22;919;48.274;12.292;2023-08-12T04:44:06;13.60;99.90
1800;DHT22;919;48.274;12.292;2023-08-12T04:46:33;13.80;99.90
1800;DHT22;919;48.274;12.292;2023-08-12T04:49:01;13.90;99.90
1800;DHT22;919;48.274;12.292;2023-08-12T04:51:28;14.00;99.90
1800;DHT22;919;48.274;12.292;2023-08-12T04:53:55;14.20;99.90
1800;DHT22;919;48.274;12.292;2023-08-12T04:56:23;14.30;99.90
1800;DHT22;919;48.274;12.292;2023-08-12T04:58:50;14.40;99.90
1800;DHT22;919;48.274;12.292;2023-08-12T05:01:17;14.50;99.90
1800;DHT22;919;48.274;12.292;2023-08-12T05:03:44;14.60;99.90
1800;DHT22;919;48.274;12.292;2023-08-12T05:06:12;14.70;99.90
1800;DHT22;919;48.274;12.292;2023-08-12T05:08:39;14.80;99.90
1800;DHT22;919;48.274;12.292;2023-08-12T05:11:07;14.90;99.90
1800;DHT22;919;48.274;12.292;2023-08-12T05:13:34;15.00;99.90
1800;DHT22;919;48.274;12.292;2023-08-12T05:16:02;15.00;99.90
1800;DHT22;919;48.274;12.292;2023-08-12T05:18:35;15.10;99.90
1800;DHT22;919;48.274;12.292;2023-08-12T05:21:03;15.10;99.90
1800;DHT22;919;48.274;12.292;2023-08-12T05:23:33;15.20;99.90
1800;DHT22;919;48.274;12.292;2023-08-12T05:26:00;15.40;99.90
1800;DHT22;919;48.274;12.292;2023-08-12T05:28:27;15.60;99.90
1800;DHT22;919;48.274;12.292;2023-08-12T05:30:55;15.80;99.90
1800;DHT22;919;48.274;12.292;2023-08-12T05:33:22;16.00;99.90
1800;DHT22;919;48.274;12.292;2023-08-12T05:35:50;16.10;99.90
1800;DHT22;919;48.274;12.292;2023-08-12T05:38:17;16.20;99.90
1800;DHT22;919;48.274;12.292;2023-08-12T05:40:46;16.30;99.90
1800;DHT22;919;48.274;12.292;2023-08-12T05:43:14;16.40;99.90
1800;DHT22;919;48.274;12.292;2023-08-12T05:45:41;16.50;99.90
1800;DHT22;919;48.274;12.292;2023-08-12T05:48:14;16.50;99.90
1800;DHT22;919;48.274;12.292;2023-08-12T05:50:41;16.60;99.90
1800;DHT22;919;48.274;12.292;2023-08-12T05:53:09;16.70;99.90
1800;DHT22;919;48.274;12.292;2023-08-12T05:55:36;16.70;99.90
1800;DHT22;919;48.274;12.292;2023-08-12T05:58:05;16.70;99.90
1800;DHT22;919;48.274;12.292;2023-08-12T06:00:32;16.80;99.90
1800;DHT22;919;48.274;12.292;2023-08-12T06:03:00;16.90;99.90
1800;DHT22;919;48.274;12.292;2023-08-12T06:05:27;16.90;99.90
1800;DHT22;919;48.274;12.292;2023-08-12T06:07:54;16.90;99.90
1800;DHT22;919;48.274;12.292;2023-08-12T06:10:22;16.90;99.90
1800;DHT22;919;48.274;12.292;2023-08-12T06:12:50;17.00;99.90
1800;DHT22;919;48.274;12.292;2023-08-12T06:15:19;17.10;99.90
1800;DHT22;919;48.274;12.292;2023-08-12T06:17:47;17.10;99.90
1800;DHT22;919;48.274;12.292;2023-08-12T06:20:14;17.20;99.90
1800;DHT22;919;48.274;12.292;2023-08-12T06:22:42;17.20;99.90
1800;DHT22;919;48.274;12.292;2023-08-12T06:25:09;17.30;99.90
1800;DHT22;919;48.274;12.292;2023-08-12T06:27:36;17.30;99.90
1800;DHT22;919;48.274;12.292;2023-08-12T06:30:04;17.30;99.90
1800;DHT22;919;48.274;12.292;2023-08-12T06:32:33;17.40;99.90
1800;DHT22;919;48.274;12.292;2023-08-12T06:35:00;17.40;99.90
1800;DHT22;919;48.274;12.292;2023-08-12T06:37:27;17.50;99.90
1800;DHT22;919;48.274;12.292;2023-08-12T06:39:53;17.60;99.90
1800;DHT22;919;48.274;12.292;2023-08-12T06:42:20;17.70;99.90
1800;DHT22;919;48.274;12.292;2023-08-12T06:44:56;17.80;99.90
1800;DHT22;919;48.274;12.292;2023-08-12T06:47:23;17.80;99.90
1800;DHT22;919;48.274;12.292;2023-08-12T06:49:52;17.90;99.90
1800;DHT22;919;48.274;12.292;2023-08-12T06:52:19;18.00;99.90
1800;DHT22;919;48.274;12.292;2023-08-12T06:54:46;18.10;99.90
1800;DHT22;919;48.274;12.292;2023-08-12T06:57:12;18.20;99.90
1800;DHT22;919;48.274;12.292;2023-08-12T06:59:39;18.30;99.90
1800;DHT22;919;48.274;12.292;2023-08-12T07:02:06;18.30;99.90
1800;DHT22;919;48.274;12.292;2023-08-12T07:04:33;18.50;99.90
1800;DHT22;919;48.274;12.292;2023-08-12T07:07:01;18.60;99.90
1800;DHT22;919;48.274;12.292;2023-08-12T07:09:28;18.70;99.90
1800;DHT22;919;48.274;12.292;2023-08-12T07:11:55;18.80;99.90
1800;DHT22;919;48.274;12.292;2023-08-12T07:14:21;18.80;99.90
1800;DHT22;919;48.274;12.292;2023-08-12T07:16:48;18.90;99.90
1800;DHT22;919;48.274;12.292;2023-08-12T07:19:15;19.00;99.90
1800;DHT22;919;48.274;12.292;2023-08-12T07:21:41;19.10;99.90
1800;DHT22;919;48.274;12.292;2023-08-12T07:24:09;19.10;99.90
1800;DHT22;919;48.274;12.292;2023-08-12T07:26:36;19.30;99.90
1800;DHT22;919;48.274;12.292;2023-08-12T07:29:03;19.30;99.90
1800;DHT22;919;48.274;12.292;2023-08-12T07:31:30;19.40;99.90
1800;DHT22;919;48.274;12.292;2023-08-12T07:33:58;19.50;99.90
1800;DHT22;919;48.274;12.292;2023-08-12T07:36:25;19.60;99.90
1800;DHT22;919;48.274;12.292;2023-08-12T07:38:53;19.70;99.90
1800;DHT22;919;48.274;12.292;2023-08-12T07:41:21;19.80;99.90
1800;DHT22;919;48.274;12.292;2023-08-12T07:43:48;19.90;99.90
1800;DHT22;919;48.274;12.292;2023-08-12T07:46:24;20.00;99.90
1800;DHT22;919;48.274;12.292;2023-08-12T07:48:51;20.10;99.90
1800;DHT22;919;48.274;12.292;2023-08-12T07:51:18;20.10;99.90
1800;DHT22;919;48.274;12.292;2023-08-12T07:53:47;20.10;99.90
1800;DHT22;919;48.274;12.292;2023-08-12T07:56:20;20.20;99.90
1800;DHT22;919;48.274;12.292;2023-08-12T07:58:48;20.20;99.90
1800;DHT22;919;48.274;12.292;2023-08-12T08:01:17;20.20;99.90
1800;DHT22;919;48.274;12.292;2023-08-12T08:03:45;20.30;99.90
1800;DHT22;919;48.274;12.292;2023-08-12T08:06:13;20.40;99.90
1800;DHT22;919;48.274;12.292;2023-08-12T08:08:40;20.40;99.90
1800;DHT22;919;48.274;12.292;2023-08-12T08:11:06;20.50;99.90
1800;DHT22;919;48.274;12.292;2023-08-12T08:13:35;20.60;99.90
1800;DHT22;919;48.274;12.292;2023-08-12T08:16:01;20.70;99.90
1800;DHT22;919;48.274;12.292;2023-08-12T08:18:28;20.80;99.90
1800;DHT22;919;48.274;12.292;2023-08-12T08:20:55;20.90;99.90
1800;DHT22;919;48.274;12.292;2023-08-12T08:23:24;21.00;99.90
1800;DHT22;919;48.274;12.292;2023-08-12T08:25:51;21.00;99.90
1800;DHT22;919;48.274;12.292;2023-08-12T08:28:21;21.10;99.90
1800;DHT22;919;48.274;12.292;2023-08-12T08:30:50;21.20;99.90
1800;DHT22;919;48.274;12.292;2023-08-12T08:33:18;21.30;99.90
1800;DHT22;919;48.274;12.292;2023-08-12T08:35:45;21.40;99.90
1800;DHT22;919;48.274;12.292;2023-08-12T08:38:12;21.50;99.90
1800;DHT22;919;48.274;12.292;2023-08-12T08:40:39;21.60;99.90
1800;DHT22;919;48.274;12.292;2023-08-12T08:43:07;21.70;99.90
1800;DHT22;919;48.274;12.292;2023-08-12T08:45:37;21.80;99.90
1800;DHT22;919;48.274;12.292;2023-08-12T08:48:07;22.00;99.90
1800;DHT22;919;48.274;12.292;2023-08-12T08:50:36;22.00;99.90
1800;DHT22;919;48.274;12.292;2023-08-12T08:53:05;22.20;99.90
1800;DHT22;919;48.274;12.292;2023-08-12T08:55:33;22.30;99.90
1800;DHT22;919;48.274;12.292;2023-08-12T08:58:00;22.40;99.90
1800;DHT22;919;48.274;12.292;2023-08-12T09:00:28;22.50;99.90
1800;DHT22;919;48.274;12.292;2023-08-12T09:02:57;22.60;99.90
1800;DHT22;919;48.274;12.292;2023-08-12T09:05:26;22.70;99.90
1800;DHT22;919;48.274;12.292;2023-08-12T09:07:54;22.90;99.90
1800;DHT22;919;48.274;12.292;2023-08-12T09:10:22;22.90;99.90
1800;DHT22;919;48.274;12.292;2023-08-12T09:12:51;23.10;99.90
1800;DHT22;919;48.274;12.292;2023-08-12T09:15:19;23.30;99.90
1800;DHT22;919;48.274;12.292;2023-08-12T09:17:46;23.50;99.90
1800;DHT22;919;48.274;12.292;2023-08-12T09:20:13;23.60;99.90
1800;DHT22;919;48.274;12.292;2023-08-12T09:22:42;23.90;99.90
1800;DHT22;919;48.274;12.292;2023-08-12T09:25:10;24.00;99.90
1800;DHT22;919;48.274;12.292;2023-08-12T09:27:38;24.10;99.90
1800;DHT22;919;48.274;12.292;2023-08-12T09:30:07;24.20;99.90
1800;DHT22;919;48.274;12.292;2023-08-12T09:32:35;24.10;99.90
1800;DHT22;919;48.274;12.292;2023-08-12T09:35:04;24.10;99.90
1800;DHT22;919;48.274;12.292;2023-08-12T09:37:32;24.10;99.90
1800;DHT22;919;48.274;12.292;2023-08-12T09:40:01;24.10;99.90
1800;DHT22;919;48.274;12.292;2023-08-12T09:42:31;24.10;99.90
1800;DHT22;919;48.274;12.292;2023-08-12T09:45:00;24.40;99.90
1800;DHT22;919;48.274;12.292;2023-08-12T09:47:29;24.70;99.90
1800;DHT22;919;48.274;12.292;2023-08-12T09:49:56;25.00;99.90
1800;DHT22;919;48.274;12.292;2023-08-12T09:52:25;25.20;99.90
1800;DHT22;919;48.274;12.292;2023-08-12T09:54:55;25.20;99.90
1800;DHT22;919;48.274;12.292;2023-08-12T09:57:28;25.20;99.90
1800;DHT22;919;48.274;12.292;2023-08-12T09:59:58;25.40;99.90
1800;DHT22;919;48.274;12.292;2023-08-12T10:02:27;25.60;99.90
1800;DHT22;919;48.274;12.292;2023-08-12T10:04:56;25.80;99.90
1800;DHT22;919;48.274;12.292;2023-08-12T10:07:24;26.10;99.90
1800;DHT22;919;48.274;12.292;2023-08-12T10:09:53;26.40;99.90
1800;DHT22;919;48.274;12.292;2023-08-12T10:12:23;26.50;99.90
1800;DHT22;919;48.274;12.292;2023-08-12T10:14:52;26.70;99.90
1800;DHT22;919;48.274;12.292;2023-08-12T10:17:20;26.80;99.90
1800;DHT22;919;48.274;12.292;2023-08-12T10:19:48;26.80;99.90
1800;DHT22;919;48.274;12.292;2023-08-12T10:22:23;26.90;99.90
1800;DHT22;919;48.274;12.292;2023-08-12T10:24:52;27.20;99.90
1800;DHT22;919;48.274;12.292;2023-08-12T10:27:20;27.40;99.90
1800;DHT22;919;48.274;12.292;2023-08-12T10:29:47;27.50;99.90
1800;DHT22;919;48.274;12.292;2023-08-12T10:32:15;27.40;99.90
1800;DHT22;919;48.274;12.292;2023-08-12T10:34:42;27.30;99.90
1800;DHT22;919;48.274;12.292;2023-08-12T10:37:10;27.30;99.90
1800;DHT22;919;48.274;12.292;2023-08-12T10:39:37;27.20;99.90
1800;DHT22;919;48.274;12.292;2023-08-12T10:42:04;27.00;99.90
1800;DHT22;919;48.274;12.292;2023-08-12T10:44:40;27.10;99.90
1800;DHT22;919;48.274;12.292;2023-08-12T10:47:16;27.10;99.90
1800;DHT22;919;48.274;12.292;2023-08-12T10:49:48;27.30;99.90
1800;DHT22;919;48.274;12.292;2023-08-12T10:52:26;27.50;99.90
1800;DHT22;919;48.274;12.292;2023-08-12T10:54:54;27.80;99.90
1800;DHT22;919;48.274;12.292;2023-08-12T10:57:35;27.90;99.90
1800;DHT22;919;48.274;12.292;2023-08-12T11:00:05;28.40;99.90
1800;DHT22;919;48.274;12.292;2023-08-12T11:02:37;28.80;99.90
1800;DHT22;919;48.274;12.292;2023-08-12T11:05:08;28.90;99.90
1800;DHT22;919;48.274;12.292;2023-08-12T11:07:38;28.90;99.90
1800;DHT22;919;48.274;12.292;2023-08-12T11:10:11;28.80;99.90
1800;DHT22;919;48.274;12.292;2023-08-12T11:12:39;28.70;99.90
1800;DHT22;919;48.274;12.292;2023-08-12T11:15:08;28.80;99.90
1800;DHT22;919;48.274;12.292;2023-08-12T11:17:38;28.70;99.90
1800;DHT22;919;48.274;12.292;2023-08-12T11:20:13;28.60;99.90
1800;DHT22;919;48.274;12.292;2023-08-12T11:22:41;28.50;99.90
1800;DHT22;919;48.274;12.292;2023-08-12T11:25:10;28.50;99.90
1800;DHT22;919;48.274;12.292;2023-08-12T11:27:42;28.50;99.90
1800;DHT22;919;48.274;12.292;2023-08-12T11:30:11;28.60;99.90
1800;DHT22;919;48.274;12.292;2023-08-12T11:32:40;28.80;99.90
1800;DHT22;919;48.274;12.292;2023-08-12T11:35:09;28.70;99.90
1800;DHT22;919;48.274;12.292;2023-08-12T11:37:37;28.70;99.90
1800;DHT22;919;48.274;12.292;2023-08-12T11:40:06;28.70;99.90
1800;DHT22;919;48.274;12.292;2023-08-12T11:42:34;28.70;99.90
1800;DHT22;919;48.274;12.292;2023-08-12T11:45:01;28.80;99.90
1800;DHT22;919;48.274;12.292;2023-08-12T11:47:29;28.70;99.90
1800;DHT22;919;48.274;12.292;2023-08-12T11:49:57;28.70;99.90
1800;DHT22;919;48.274;12.292;2023-08-12T11:52:25;28.60;99.90
1800;DHT22;919;48.274;12.292;2023-08-12T11:54:53;28.80;99.90
1800;DHT22;919;48.274;12.292;2023-08-12T11:57:22;29.10;99.90
1800;DHT22;919;48.274;12.292;2023-08-12T11:59:50;29.30;99.90
1800;DHT22;919;48.274;12.292;2023-08-12T12:02:17;29.60;99.90
1800;DHT22;919;48.274;12.292;2023-08-12T12:04:45;29.90;99.90
1800;DHT22;919;48.274;12.292;2023-08-12T12:07:21;30.00;99.90
1800;DHT22;919;48.274;12.292;2023-08-12T12:09:51;30.20;99.90
1800;DHT22;919;48.274;12.292;2023-08-12T12:12:22;30.40;99.90
1800;DHT22;919;48.274;12.292;2023-08-12T12:14:51;30.50;99.90
1800;DHT22;919;48.274;12.292;2023-08-12T12:17:18;30.50;99.90
1800;DHT22;919;48.274;12.292;2023-08-12T12:19:47;30.70;99.90
1800;DHT22;919;48.274;12.292;2023-08-12T12:22:13;30.80;99.90
1800;DHT22;919;48.274;12.292;2023-08-12T12:24:45;30.80;99.90
1800;DHT22;919;48.274;12.292;2023-08-12T12:27:13;30.90;99.90
1800;DHT22;919;48.274;12.292;2023-08-12T12:29:40;30.90;99.90
1800;DHT22;919;48.274;12.292;2023-08-12T12:32:10;30.90;99.90
1800;DHT22;919;48.274;12.292;2023-08-12T12:34:40;31.10;99.90
1800;DHT22;919;48.274;12.292;2023-08-12T12:37:08;31.10;99.90
1800;DHT22;919;48.274;12.292;2023-08-12T12:39:35;31.10;99.90
1800;DHT22;919;48.274;12.292;2023-08-12T12:42:03;31.00;99.90
1800;DHT22;919;48.274;12.292;2023-08-12T12:44:30;31.00;99.90
1800;DHT22;919;48.274;12.292;2023-08-12T12:46:57;31.20;99.90
1800;DHT22;919;48.274;12.292;2023-08-12T12:49:24;31.30;99.90
1800;DHT22;919;48.274;12.292;2023-08-12T12:51:51;31.20;99.90
1800;DHT22;919;48.274;12.292;2023-08-12T12:54:17;31.20;99.90
1800;DHT22;919;48.274;12.292;2023-08-12T12:56:44;31.20;99.90
1800;DHT22;919;48.274;12.292;2023-08-12T12:59:12;31.20;99.90
1800;DHT22;919;48.274;12.292;2023-08-12T13:01:40;31.20;99.90
1800;DHT22;919;48.274;12.292;2023-08-12T13:04:06;31.30;99.90
1800;DHT22;919;48.274;12.292;2023-08-12T13:06:33;31.50;99.90
1800;DHT22;919;48.274;12.292;2023-08-12T13:09:00;31.50;99.90
1800;DHT22;919;48.274;12.292;2023-08-12T13:11:32;31.50;99.90
1800;DHT22;919;48.274;12.292;2023-08-12T13:14:00;31.60;99.90
1800;DHT22;919;48.274;12.292;2023-08-12T13:16:28;31.60;99.90
1800;DHT22;919;48.274;12.292;2023-08-12T13:18:55;31.70;99.90
1800;DHT22;919;48.274;12.292;2023-08-12T13:21:23;31.80;99.90
1800;DHT22;919;48.274;12.292;2023-08-12T13:23:50;31.90;99.90
1800;DHT22;919;48.274;12.292;2023-08-12T13:26:17;31.90;99.90
1800;DHT22;919;48.274;12.292;2023-08-12T13:28:44;31.90;99.90
1800;DHT22;919;48.274;12.292;2023-08-12T13:31:11;31.90;99.90
1800;DHT22;919;48.274;12.292;2023-08-12T13:33:39;32.10;99.90
1800;DHT22;919;48.274;12.292;2023-08-12T13:36:05;32.20;99.90
1800;DHT22;919;48.274;12.292;2023-08-12T13:38:32;32.30;99.90
1800;DHT22;919;48.274;12.292;2023-08-12T13:40:59;32.30;99.90
1800;DHT22;919;48.274;12.292;2023-08-12T13:43:26;32.30;99.90
1800;DHT22;919;48.274;12.292;2023-08-12T13:45:53;32.40;99.90
1800;DHT22;919;48.274;12.292;2023-08-12T13:48:19;32.50;99.90
1800;DHT22;919;48.274;12.292;2023-08-12T13:50:48;32.50;99.90
1800;DHT22;919;48.274;12.292;2023-08-12T13:53:16;32.50;99.90
1800;DHT22;919;48.274;12.292;2023-08-12T13:55:42;32.50;99.90
1800;DHT22;919;48.274;12.292;2023-08-12T13:58:09;32.60;99.90
1800;DHT22;919;48.274;12.292;2023-08-12T14:00:36;32.70;99.90
1800;DHT22;919;48.274;12.292;2023-08-12T14:03:03;32.80;99.90
1800;DHT22;919;48.274;12.292;2023-08-12T14:05:30;32.80;99.90
1800;DHT22;919;48.274;12.292;2023-08-12T14:07:58;32.80;99.90
1800;DHT22;919;48.274;12.292;2023-08-12T14:10:25;32.50;99.90
1800;DHT22;919;48.274;12.292;2023-08-12T14:12:52;32.10;99.90
1800;DHT22;919;48.274;12.292;2023-08-12T14:15:19;32.00;99.90
1800;DHT22;919;48.274;12.292;2023-08-12T14:17:45;31.90;99.90
1800;DHT22;919;48.274;12.292;2023-08-12T14:20:12;31.90;99.90
1800;DHT22;919;48.274;12.292;2023-08-12T14:22:41;31.80;99.90
1800;DHT22;919;48.274;12.292;2023-08-12T14:25:10;31.60;99.90
1800;DHT22;919;48.274;12.292;2023-08-12T14:27:37;31.40;99.90
1800;DHT22;919;48.274;12.292;2023-08-12T14:30:05;31.30;99.90
1800;DHT22;919;48.274;12.292;2023-08-12T14:32:34;31.30;99.90
1800;DHT22;919;48.274;12.292;2023-08-12T14:35:01;31.60;99.90
1800;DHT22;919;48.274;12.292;2023-08-12T14:37:28;31.60;99.90
1800;DHT22;919;48.274;12.292;2023-08-12T14:39:55;31.60;99.90
1800;DHT22;919;48.274;12.292;2023-08-12T14:42:23;31.50;99.90
1800;DHT22;919;48.274;12.292;2023-08-12T14:44:49;31.60;99.90
1800;DHT22;919;48.274;12.292;2023-08-12T14:47:16;31.50;99.90
1800;DHT22;919;48.274;12.292;2023-08-12T14:49:44;31.40;99.90
1800;DHT22;919;48.274;12.292;2023-08-12T14:52:16;31.30;99.90
1800;DHT22;919;48.274;12.292;2023-08-12T14:54:43;31.20;99.90
1800;DHT22;919;48.274;12.292;2023-08-12T14:57:10;31.40;99.90
1800;DHT22;919;48.274;12.292;2023-08-12T14:59:38;31.50;99.90
1800;DHT22;919;48.274;12.292;2023-08-12T15:02:05;31.40;99.90
1800;DHT22;919;48.274;12.292;2023-08-12T15:04:32;31.30;99.90
1800;DHT22;919;48.274;12.292;2023-08-12T15:06:59;31.20;99.90
1800;DHT22;919;48.274;12.292;2023-08-12T15:09:26;31.00;99.90
1800;DHT22;919;48.274;12.292;2023-08-12T15:11:53;30.70;99.90
1800;DHT22;919;48.274;12.292;2023-08-12T15:14:20;30.40;99.90
1800;DHT22;919;48.274;12.292;2023-08-12T15:16:48;30.20;99.90
1800;DHT22;919;48.274;12.292;2023-08-12T15:19:14;29.90;99.90
1800;DHT22;919;48.274;12.292;2023-08-12T15:21:41;29.70;99.90
1800;DHT22;919;48.274;12.292;2023-08-12T15:24:08;29.50;99.90
1800;DHT22;919;48.274;12.292;2023-08-12T15:26:35;29.30;99.90
1800;DHT22;919;48.274;12.292;2023-08-12T15:29:02;29.20;99.90
1800;DHT22;919;48.274;12.292;2023-08-12T15:31:29;29.10;99.90
1800;DHT22;919;48.274;12.292;2023-08-12T15:33:57;29.00;99.90
1800;DHT22;919;48.274;12.292;2023-08-12T15:36:24;28.90;99.90
1800;DHT22;919;48.274;12.292;2023-08-12T15:38:51;28.90;99.90
1800;DHT22;919;48.274;12.292;2023-08-12T15:41:18;28.90;99.90
1800;DHT22;919;48.274;12.292;2023-08-12T15:43:45;28.80;99.90
1800;DHT22;919;48.274;12.292;2023-08-12T15:46:13;28.90;99.90
1800;DHT22;919;48.274;12.292;2023-08-12T15:48:42;28.90;99.90
1800;DHT22;919;48.274;12.292;2023-08-12T15:51:10;28.90;99.90
1800;DHT22;919;48.274;12.292;2023-08-12T15:53:37;28.80;99.90
1800;DHT22;919;48.274;12.292;2023-08-12T15:56:04;28.70;99.90
1800;DHT22;919;48.274;12.292;2023-08-12T15:58:32;28.50;99.90
1800;DHT22;919;48.274;12.292;2023-08-12T16:00:59;28.30;99.90
1800;DHT22;919;48.274;12.292;2023-08-12T16:03:26;28.10;99.90
1800;DHT22;919;48.274;12.292;2023-08-12T16:05:56;27.90;99.90
1800;DHT22;919;48.274;12.292;2023-08-12T16:08:26;27.70;99.90